createdAt,value
2018-11-05T00:00:54.590Z,84.10
2018-11-05T00:03:21.880Z,84.40
2018-11-05T00:05:49.147Z,85.30
2018-11-05T00:08:16.427Z,86.50
2018-11-05T00:10:43.733Z,87.40
2018-11-05T00:13:10.980Z,87.80
2018-11-05T00:15:38.241Z,88.10
2018-11-05T00:18:05.496Z,88.30
2018-11-05T00:20:32.792Z,88.40
2018-11-05T00:23:00.047Z,88.50
2018-11-05T00:25:27.309Z,88.50
2018-11-05T00:27:54.585Z,88.40
2018-11-05T00:30:21.944Z,88.20
2018-11-05T00:32:49.203Z,88.00
2018-11-05T00:35:16.486Z,87.80
2018-11-05T00:37:43.747Z,87.70
2018-11-05T00:40:12.672Z,87.70
2018-11-05T00:42:40.143Z,87.60
2018-11-05T00:45:08.513Z,87.50
2018-11-05T00:47:35.807Z,87.50
2018-11-05T00:50:05.087Z,87.40
2018-11-05T00:52:32.368Z,87.30
2018-11-05T00:54:59.642Z,87.40
2018-11-05T00:57:26.911Z,87.70
2018-11-05T00:59:54.198Z,88.00
2018-11-05T01:02:21.952Z,88.00
2018-11-05T01:04:49.208Z,87.90
2018-11-05T01:07:16.489Z,87.60
2018-11-05T01:09:43.747Z,87.30
2018-11-05T01:12:11.584Z,87.00
2018-11-05T01:14:39.711Z,86.80
2018-11-05T01:17:07.525Z,86.60
2018-11-05T01:19:34.793Z,86.50
2018-11-05T01:22:02.063Z,86.50
2018-11-05T01:24:30.343Z,86.40
2018-11-05T01:26:57.614Z,86.40
2018-11-05T01:29:24.887Z,86.50
2018-11-05T01:31:52.120Z,86.60
2018-11-05T01:34:19.441Z,86.60
2018-11-05T01:36:46.718Z,86.60
2018-11-05T01:39:13.997Z,86.60
2018-11-05T01:41:41.344Z,86.30
2018-11-05T01:44:08.608Z,86.20
2018-11-05T01:46:35.866Z,86.00
2018-11-05T01:49:03.165Z,85.90
2018-11-05T01:51:30.435Z,85.90
2018-11-05T01:53:57.710Z,85.70
2018-11-05T01:56:24.961Z,85.90
2018-11-05T01:58:52.238Z,86.20
2018-11-05T02:01:19.576Z,86.20
2018-11-05T02:03:46.866Z,86.20
2018-11-05T02:06:14.144Z,86.50
2018-11-05T02:08:41.392Z,86.60
2018-11-05T02:11:08.650Z,86.90
2018-11-05T02:13:35.902Z,87.30
2018-11-05T02:16:03.258Z,87.40
2018-11-05T02:18:30.426Z,87.70
2018-11-05T02:20:57.699Z,87.40
2018-11-05T02:23:24.942Z,87.40
2018-11-05T02:25:52.235Z,87.30
2018-11-05T02:28:19.494Z,87.20
2018-11-05T02:30:46.751Z,87.40
2018-11-05T02:33:14.274Z,87.90
2018-11-05T02:35:41.539Z,88.30
2018-11-05T02:38:08.800Z,88.50
2018-11-05T02:40:36.090Z,88.50
2018-11-05T02:43:03.371Z,88.40
2018-11-05T02:45:30.645Z,88.10
2018-11-05T02:47:57.918Z,87.70
2018-11-05T02:50:25.164Z,87.50
2018-11-05T02:52:52.594Z,87.30
2018-11-05T02:55:19.878Z,87.40
2018-11-05T02:57:47.133Z,87.40
2018-11-05T03:00:16.558Z,87.40
2018-11-05T03:02:43.807Z,87.50
2018-11-05T03:05:13.143Z,88.30
2018-11-05T03:07:40.822Z,87.40
2018-11-05T03:10:09.286Z,87.20
2018-11-05T03:12:36.557Z,87.20
2018-11-05T03:15:05.028Z,87.20
2018-11-05T03:17:32.363Z,87.10
2018-11-05T03:19:59.631Z,87.10
2018-11-05T03:22:26.921Z,87.10
2018-11-05T03:24:54.195Z,87.30
2018-11-05T03:27:21.443Z,87.50
2018-11-05T03:29:48.693Z,87.50
2018-11-05T03:32:15.945Z,87.50
2018-11-05T03:34:43.201Z,87.60
2018-11-05T03:37:10.525Z,87.70
2018-11-05T03:39:37.789Z,88.30
2018-11-05T03:42:05.512Z,87.40
2018-11-05T03:44:32.774Z,87.40
2018-11-05T03:47:00.041Z,87.50
2018-11-05T03:49:27.285Z,87.70
2018-11-05T03:51:54.542Z,87.90
2018-11-05T03:54:21.795Z,88.20
2018-11-05T03:56:49.113Z,88.50
2018-11-05T03:59:16.372Z,88.60
2018-11-05T04:01:43.656Z,88.90
2018-11-05T04:04:10.912Z,89.00
2018-11-05T04:06:38.191Z,89.20
2018-11-05T04:09:08.137Z,89.20
2018-11-05T04:11:35.520Z,89.40
2018-11-05T04:14:03.064Z,89.40
2018-11-05T04:16:30.372Z,89.40
2018-11-05T04:18:57.660Z,89.40
2018-11-05T04:21:29.531Z,89.90
2018-11-05T04:23:56.820Z,89.30
2018-11-05T04:26:24.074Z,89.10
2018-11-05T04:28:51.373Z,88.80
2018-11-05T04:31:18.632Z,88.60
2018-11-05T04:33:45.911Z,88.50
2018-11-05T04:36:13.169Z,88.40
2018-11-05T04:38:40.433Z,88.40
2018-11-05T04:41:07.688Z,88.40
2018-11-05T04:43:34.970Z,88.40
2018-11-05T04:46:02.251Z,88.40
2018-11-05T04:48:29.496Z,88.30
2018-11-05T04:50:56.754Z,88.30
2018-11-05T04:53:24.552Z,88.30
2018-11-05T04:55:51.797Z,88.40
2018-11-05T04:58:19.068Z,88.50
2018-11-05T05:00:46.327Z,88.50
2018-11-05T05:03:13.631Z,88.50
2018-11-05T05:05:40.884Z,88.60
2018-11-05T05:08:08.126Z,89.40
2018-11-05T05:10:35.381Z,88.60
2018-11-05T05:13:02.690Z,88.70
2018-11-05T05:15:29.954Z,88.50
2018-11-05T05:17:57.221Z,88.40
2018-11-05T05:20:24.486Z,87.70
2018-11-05T05:22:51.971Z,88.00
2018-11-05T05:25:19.000Z,87.80
2018-11-05T05:27:46.267Z,87.60
2018-11-05T05:30:15.969Z,87.50
2018-11-05T05:32:43.625Z,87.40
2018-11-05T05:35:11.199Z,87.40
2018-11-05T05:37:38.537Z,87.30
2018-11-05T05:40:05.999Z,87.40
2018-11-05T05:42:33.269Z,87.50
2018-11-05T05:45:00.530Z,87.50
2018-11-05T05:47:27.807Z,87.60
2018-11-05T05:49:55.107Z,87.70
2018-11-05T05:52:22.338Z,87.90
2018-11-05T05:54:49.581Z,88.10
2018-11-05T05:57:16.846Z,88.20
2018-11-05T05:59:44.240Z,88.30
2018-11-05T06:02:11.584Z,88.50
2018-11-05T06:04:39.127Z,88.60
2018-11-05T06:07:06.414Z,88.80
2018-11-05T06:09:33.649Z,88.80
2018-11-05T06:12:00.914Z,88.90
2018-11-05T06:14:28.175Z,88.90
2018-11-05T06:16:55.420Z,89.00
2018-11-05T06:19:22.673Z,89.00
2018-11-05T06:21:50.022Z,89.10
2018-11-05T06:24:17.195Z,90.00
2018-11-05T06:26:44.465Z,89.30
2018-11-05T06:29:11.725Z,89.40
2018-11-05T06:31:38.984Z,90.00
2018-11-05T06:34:06.230Z,89.50
2018-11-05T06:36:33.490Z,89.90
2018-11-05T06:39:00.738Z,90.00
2018-11-05T06:41:28.130Z,89.40
2018-11-05T06:43:55.249Z,88.70
2018-11-05T06:46:22.510Z,89.00
2018-11-05T06:48:49.776Z,89.00
2018-11-05T06:51:17.026Z,89.00
2018-11-05T06:53:44.270Z,89.00
2018-11-05T06:56:11.510Z,89.00
2018-11-05T06:58:38.777Z,89.10
2018-11-05T07:01:06.017Z,89.20
2018-11-05T07:03:33.599Z,89.40
2018-11-05T07:06:00.975Z,89.60
2018-11-05T07:08:28.107Z,89.60
2018-11-05T07:10:55.379Z,89.80
2018-11-05T07:13:22.598Z,89.80
2018-11-05T07:15:49.973Z,90.00
2018-11-05T07:18:17.223Z,90.00
2018-11-05T07:20:44.450Z,90.10
2018-11-05T07:23:11.706Z,90.10
2018-11-05T07:25:38.962Z,90.10
2018-11-05T07:28:06.227Z,90.20
2018-11-05T07:30:33.467Z,90.30
2018-11-05T07:33:00.717Z,90.30
2018-11-05T07:35:27.957Z,90.40
2018-11-05T07:37:55.638Z,90.40
2018-11-05T07:40:22.886Z,90.50
2018-11-05T07:42:50.131Z,90.50
2018-11-05T07:45:19.035Z,90.50
2018-11-05T07:47:46.691Z,90.60
2018-11-05T07:50:15.045Z,90.60
2018-11-05T07:52:42.242Z,90.10
2018-11-05T07:55:11.008Z,90.10
2018-11-05T07:57:39.165Z,90.30
2018-11-05T08:00:14.415Z,90.40
2018-11-05T08:02:41.660Z,90.50
2018-11-05T08:05:08.925Z,90.60
2018-11-05T08:07:36.490Z,90.90
2018-11-05T08:10:05.267Z,90.90
2018-11-05T08:12:32.513Z,91.10
2018-11-05T08:14:59.758Z,91.30
2018-11-05T08:17:27.013Z,91.40
2018-11-05T08:19:54.288Z,91.60
2018-11-05T08:22:21.529Z,91.60
2018-11-05T08:24:48.780Z,91.70
2018-11-05T08:27:16.010Z,91.60
2018-11-05T08:29:43.282Z,91.70
2018-11-05T08:32:10.518Z,91.70
2018-11-05T08:34:37.774Z,91.50
2018-11-05T08:37:05.061Z,91.40
2018-11-05T08:39:32.285Z,91.20
2018-11-05T08:41:59.542Z,91.00
2018-11-05T08:44:26.769Z,90.80
2018-11-05T08:46:54.093Z,90.70
2018-11-05T08:49:21.299Z,90.50
2018-11-05T08:51:49.098Z,90.30
2018-11-05T08:54:16.308Z,90.00
2018-11-05T08:56:43.394Z,89.80
2018-11-05T08:59:10.643Z,89.50
2018-11-05T09:01:37.910Z,89.90
2018-11-05T09:04:05.274Z,90.00
2018-11-05T09:06:32.491Z,90.10
2018-11-05T09:08:59.758Z,90.40
2018-11-05T09:11:27.417Z,90.80
2018-11-05T09:13:54.315Z,91.30
2018-11-05T09:16:21.681Z,91.60
2018-11-05T09:18:48.806Z,91.60
2018-11-05T09:21:16.052Z,91.70
2018-11-05T09:23:43.320Z,91.80
2018-11-05T09:26:10.574Z,91.30
2018-11-05T09:28:37.848Z,91.20
2018-11-05T09:31:05.307Z,91.00
2018-11-05T09:33:32.547Z,90.50
2018-11-05T09:35:59.805Z,90.40
2018-11-05T09:38:27.055Z,90.40
2018-11-05T09:40:54.309Z,90.00
2018-11-05T09:43:21.591Z,89.30
2018-11-05T09:45:48.843Z,88.40
2018-11-05T09:48:16.069Z,88.20
2018-11-05T09:50:43.427Z,88.10
2018-11-05T09:53:10.615Z,88.50
2018-11-05T09:55:37.883Z,88.40
2018-11-05T09:58:05.132Z,88.00
2018-11-05T10:00:32.365Z,87.60
2018-11-05T10:03:05.470Z,87.60
2018-11-05T10:05:32.702Z,88.20
2018-11-05T10:07:59.938Z,88.80
2018-11-05T10:10:27.303Z,90.00
2018-11-05T10:12:54.425Z,90.00
2018-11-05T10:15:21.681Z,90.00
2018-11-05T10:17:48.914Z,90.00
2018-11-05T10:20:17.434Z,89.90
2018-11-05T10:22:45.177Z,89.90
2018-11-05T10:25:13.078Z,89.60
2018-11-05T10:27:40.252Z,90.00
2018-11-05T10:30:09.904Z,89.40
2018-11-05T10:32:37.195Z,88.80
2018-11-05T10:37:32.082Z,88.50
2018-11-05T10:39:59.344Z,89.20
2018-11-05T10:42:26.586Z,89.10
2018-11-05T10:44:53.837Z,88.60
2018-11-05T10:47:21.079Z,88.20
2018-11-05T10:49:48.299Z,88.50
2018-11-05T10:52:15.749Z,88.00
2018-11-05T10:54:43.095Z,88.00
2018-11-05T10:57:10.412Z,87.50
2018-11-05T10:59:37.606Z,87.70
2018-11-05T11:02:10.485Z,87.70
2018-11-05T11:04:38.109Z,87.30
2018-11-05T11:07:05.354Z,86.50
2018-11-05T11:09:32.656Z,86.90
2018-11-05T11:12:00.483Z,87.10
2018-11-05T11:14:28.126Z,87.60
2018-11-05T11:16:55.421Z,86.50
2018-11-05T11:19:22.674Z,86.30
2018-11-05T11:21:49.910Z,86.50
2018-11-05T11:24:17.554Z,86.80
2018-11-05T11:26:44.789Z,87.20
2018-11-05T11:29:12.108Z,86.40
2018-11-05T11:31:39.278Z,86.40
2018-11-05T11:34:06.535Z,86.30
2018-11-05T11:36:33.791Z,86.50
2018-11-05T11:39:01.035Z,86.10
2018-11-05T11:41:28.257Z,85.90
2018-11-05T11:43:55.526Z,85.60
2018-11-05T11:46:22.751Z,85.90
2018-11-05T11:48:50.314Z,85.90
2018-11-05T11:51:17.560Z,85.20
2018-11-05T11:53:44.827Z,85.70
2018-11-05T11:56:12.939Z,85.60
2018-11-05T11:58:40.194Z,84.60
2018-11-05T12:01:07.461Z,83.80
2018-11-05T12:03:34.742Z,83.80
2018-11-05T12:06:02.096Z,83.40
2018-11-05T12:08:29.966Z,82.70
2018-11-05T12:10:57.303Z,82.30
2018-11-05T12:13:24.594Z,82.40
2018-11-05T12:15:51.976Z,81.80
2018-11-05T12:20:53.369Z,82.30
2018-11-05T12:23:20.585Z,82.40
2018-11-05T12:25:47.838Z,82.90
2018-11-05T12:28:15.111Z,83.40
2018-11-05T12:30:42.375Z,83.80
2018-11-05T12:33:09.634Z,83.60
2018-11-05T12:35:36.939Z,84.30
2018-11-05T12:38:04.810Z,84.60
2018-11-05T12:40:32.046Z,83.60
2018-11-05T12:42:59.289Z,83.10
2018-11-05T12:45:26.533Z,82.60
2018-11-05T12:47:53.790Z,81.70
2018-11-05T12:50:23.040Z,81.50
2018-11-05T12:52:51.402Z,81.40
2018-11-05T12:55:18.682Z,81.60
2018-11-05T12:57:46.461Z,82.20
2018-11-05T13:00:16.225Z,82.10
2018-11-05T13:02:43.690Z,82.10
2018-11-05T13:05:12.050Z,82.00
2018-11-05T13:07:39.362Z,82.30
2018-11-05T13:10:09.538Z,82.60
2018-11-05T13:12:36.798Z,82.50
2018-11-05T13:15:05.182Z,82.30
2018-11-05T13:17:32.603Z,82.50
2018-11-05T13:19:59.870Z,82.40
2018-11-05T13:22:27.202Z,82.60
2018-11-05T13:24:54.370Z,82.80
2018-11-05T13:27:21.712Z,83.10
2018-11-05T13:29:49.048Z,83.30
2018-11-05T13:32:16.237Z,83.60
2018-11-05T13:34:43.500Z,83.20
2018-11-05T13:37:11.659Z,82.90
2018-11-05T13:39:38.878Z,82.50
2018-11-05T13:42:06.159Z,82.20
2018-11-05T13:44:33.480Z,82.40
2018-11-05T13:47:01.217Z,82.30
2018-11-05T13:49:28.195Z,81.90
2018-11-05T13:51:55.235Z,81.80
2018-11-05T13:54:22.637Z,82.10
2018-11-05T13:56:49.987Z,82.00
2018-11-05T13:59:17.255Z,81.70
2018-11-05T14:01:44.505Z,81.90
2018-11-05T14:04:11.749Z,82.10
2018-11-05T14:06:38.989Z,82.70
2018-11-05T14:09:07.310Z,82.90
2018-11-05T14:11:34.558Z,83.10
2018-11-05T14:14:01.920Z,82.90
2018-11-05T14:16:29.130Z,82.90
2018-11-05T14:18:56.682Z,83.00
2018-11-05T14:21:23.953Z,83.00
2018-11-05T14:23:51.194Z,82.70
2018-11-05T14:26:18.621Z,82.40
2018-11-05T14:28:45.946Z,82.00
2018-11-05T14:31:13.009Z,81.80
2018-11-05T14:33:40.536Z,81.70
2018-11-05T14:36:07.814Z,81.90
2018-11-05T14:38:35.151Z,81.70
2018-11-05T14:41:02.391Z,81.50
2018-11-05T14:43:29.680Z,81.70
2018-11-05T14:45:56.896Z,82.10
2018-11-05T14:48:24.151Z,82.30
2018-11-05T14:50:51.573Z,81.80
2018-11-05T14:53:18.685Z,81.80
2018-11-05T14:55:45.934Z,81.80
2018-11-05T14:58:13.187Z,81.30
2018-11-05T15:00:40.458Z,81.00
2018-11-05T15:03:07.722Z,80.40
2018-11-05T15:05:35.006Z,80.30
2018-11-05T15:08:02.266Z,81.10
2018-11-05T15:10:29.538Z,80.40
2018-11-05T15:12:56.775Z,80.50
2018-11-05T15:15:24.037Z,80.50
2018-11-05T15:17:51.331Z,80.50
2018-11-05T15:20:19.984Z,80.40
2018-11-05T15:22:47.130Z,80.50
2018-11-05T15:25:14.663Z,80.50
2018-11-05T15:27:41.918Z,80.90
2018-11-05T15:30:15.210Z,80.90
2018-11-05T15:32:42.769Z,80.80
2018-11-05T15:35:10.216Z,80.50
2018-11-05T15:37:38.294Z,80.70
2018-11-05T15:40:06.478Z,80.60
2018-11-05T15:42:33.774Z,80.90
2018-11-05T15:45:01.058Z,80.90
2018-11-05T15:47:28.305Z,80.70
2018-11-05T15:49:55.554Z,81.00
2018-11-05T15:52:23.339Z,80.90
2018-11-05T15:54:50.090Z,80.80
2018-11-05T15:57:17.335Z,80.80
2018-11-05T15:59:44.581Z,80.80
2018-11-05T16:02:12.778Z,80.60
2018-11-05T16:04:41.260Z,80.70
2018-11-05T16:07:08.841Z,80.70
2018-11-05T16:09:36.754Z,80.50
2018-11-05T16:12:04.146Z,80.40
2018-11-05T16:14:31.410Z,80.20
2018-11-05T16:16:58.649Z,80.10
2018-11-05T16:19:25.893Z,80.00
2018-11-05T16:21:53.179Z,80.10
2018-11-05T16:24:21.374Z,80.00
2018-11-05T16:26:48.614Z,80.00
2018-11-05T16:29:15.873Z,80.10
2018-11-05T16:31:43.109Z,80.20
2018-11-05T16:34:10.426Z,80.50
2018-11-05T16:36:37.667Z,80.50
2018-11-05T16:39:07.509Z,81.00
2018-11-05T16:41:34.886Z,81.20
2018-11-05T16:44:02.082Z,81.30
2018-11-05T16:46:29.330Z,81.40
2018-11-05T16:48:56.586Z,81.70
2018-11-05T16:51:23.818Z,81.80
2018-11-05T16:53:51.130Z,81.90
2018-11-05T16:56:18.349Z,82.10
2018-11-05T16:58:45.624Z,82.20
2018-11-05T17:01:13.096Z,82.40
2018-11-05T17:03:40.149Z,82.30
2018-11-05T17:06:07.398Z,82.10
2018-11-05T17:08:34.644Z,82.20
2018-11-05T17:11:01.898Z,82.00
2018-11-05T17:13:29.220Z,81.70
2018-11-05T17:15:56.415Z,81.60
2018-11-05T17:18:23.674Z,81.60
2018-11-05T17:20:51.177Z,81.50
2018-11-05T17:23:18.453Z,81.50
2018-11-05T17:25:45.712Z,81.80
2018-11-05T17:28:12.983Z,81.80
2018-11-05T17:30:40.242Z,82.00
2018-11-05T17:33:07.518Z,82.10
2018-11-05T17:35:34.796Z,82.20
2018-11-05T17:38:02.058Z,82.40
2018-11-05T17:40:29.345Z,82.60
2018-11-05T17:42:56.594Z,82.60
2018-11-05T17:45:23.869Z,82.80
2018-11-05T17:47:51.148Z,82.90
2018-11-05T17:50:19.759Z,83.10
2018-11-05T17:52:47.002Z,83.20
2018-11-05T17:55:14.685Z,83.20
2018-11-05T17:57:42.966Z,82.90
2018-11-05T18:00:13.081Z,83.30
2018-11-05T18:02:40.380Z,83.30
2018-11-05T18:05:07.656Z,83.30
2018-11-05T18:07:34.891Z,83.40
2018-11-05T18:10:02.355Z,83.50
2018-11-05T18:12:29.598Z,83.40
2018-11-05T18:14:56.843Z,83.30
2018-11-05T18:17:24.093Z,83.40
2018-11-05T18:19:51.330Z,83.30
2018-11-05T18:22:18.597Z,83.30
2018-11-05T18:24:45.848Z,83.00
2018-11-05T18:27:13.256Z,83.30
2018-11-05T18:29:40.507Z,83.40
2018-11-05T18:32:09.035Z,83.40
2018-11-05T18:34:36.275Z,83.30
2018-11-05T18:37:03.522Z,83.30
2018-11-05T18:39:30.926Z,83.30
2018-11-05T18:41:58.170Z,83.40
2018-11-05T18:44:25.437Z,83.40
2018-11-05T18:46:52.683Z,83.10
2018-11-05T18:49:19.946Z,83.30
2018-11-05T18:51:47.344Z,83.30
2018-11-05T18:54:14.526Z,83.30
2018-11-05T18:56:41.912Z,83.40
2018-11-05T18:59:09.050Z,83.40
2018-11-05T19:01:36.297Z,83.40
2018-11-05T19:04:03.802Z,83.50
2018-11-05T19:06:31.070Z,83.70
2018-11-05T19:08:58.321Z,83.70
2018-11-05T19:11:26.835Z,83.80
2018-11-05T19:13:54.081Z,84.20
2018-11-05T19:16:21.326Z,85.00
2018-11-05T19:18:48.570Z,84.30
2018-11-05T19:21:15.838Z,84.20
2018-11-05T19:23:43.227Z,84.30
2018-11-05T19:26:10.362Z,84.30
2018-11-05T19:28:37.735Z,84.30
2018-11-05T19:31:04.974Z,84.40
2018-11-05T19:33:32.407Z,84.80
2018-11-05T19:36:01.810Z,85.20
2018-11-05T19:38:29.063Z,85.40
2018-11-05T19:40:56.314Z,85.50
2018-11-05T19:43:23.603Z,86.10
2018-11-05T19:45:50.848Z,86.00
2018-11-05T19:48:18.126Z,86.00
2018-11-05T19:50:45.366Z,86.00
2018-11-05T19:53:12.676Z,85.80
2018-11-05T19:55:40.077Z,85.60
2018-11-05T19:58:07.320Z,85.30
2018-11-05T20:00:34.609Z,85.20
2018-11-05T20:03:01.859Z,85.10
2018-11-05T20:05:29.164Z,84.80
2018-11-05T20:07:57.253Z,84.80
2018-11-05T20:10:24.555Z,84.70
2018-11-05T20:12:51.825Z,84.50
2018-11-05T20:15:19.264Z,84.50
2018-11-05T20:17:47.393Z,84.30
2018-11-05T20:20:15.899Z,84.30
2018-11-05T20:22:43.339Z,84.10
2018-11-05T20:25:10.928Z,84.10
2018-11-05T20:27:38.567Z,84.00
2018-11-05T20:30:08.361Z,84.00
2018-11-05T20:32:36.166Z,84.00
2018-11-05T20:35:03.264Z,84.00
2018-11-05T20:37:30.511Z,83.90
2018-11-05T20:39:57.834Z,83.90
2018-11-05T20:42:24.998Z,83.70
2018-11-05T20:44:52.238Z,83.80
2018-11-05T20:47:19.526Z,84.10
2018-11-05T20:49:47.302Z,84.30
2018-11-05T20:52:14.586Z,84.40
2018-11-05T20:54:41.834Z,84.50
2018-11-05T20:57:09.077Z,84.50
2018-11-05T20:59:36.511Z,84.50
2018-11-05T21:02:03.806Z,84.60
2018-11-05T21:04:31.052Z,84.60
2018-11-05T21:06:58.302Z,84.60
2018-11-05T21:09:25.577Z,84.70
2018-11-05T21:11:53.822Z,84.80
2018-11-05T21:14:21.093Z,84.50
2018-11-05T21:16:48.340Z,84.80
2018-11-05T21:19:15.578Z,84.80
2018-11-05T21:21:42.995Z,84.90
2018-11-05T21:24:10.074Z,84.90
2018-11-05T21:26:37.471Z,84.80
2018-11-05T21:29:04.569Z,84.80
2018-11-05T21:31:32.208Z,84.40
2018-11-05T21:36:26.650Z,84.60
2018-11-05T21:38:53.938Z,84.60
2018-11-05T21:41:21.233Z,84.40
2018-11-05T21:43:52.894Z,84.30
2018-11-05T21:46:20.677Z,84.20
2018-11-05T21:48:48.838Z,84.10
2018-11-05T21:51:16.117Z,83.80
2018-11-05T21:53:43.383Z,84.30
2018-11-05T21:56:10.631Z,83.40
2018-11-05T21:58:37.874Z,83.10
2018-11-05T22:01:05.287Z,83.40
2018-11-05T22:03:32.570Z,82.40
2018-11-05T22:08:27.029Z,81.50
2018-11-05T22:10:54.246Z,81.90
2018-11-05T22:13:21.546Z,82.00
2018-11-05T22:15:48.771Z,82.00
2018-11-05T22:18:16.983Z,82.30
2018-11-05T22:20:44.698Z,82.20
2018-11-05T22:23:11.940Z,82.10
2018-11-05T22:25:39.176Z,82.00
2018-11-05T22:28:06.699Z,81.90
2018-11-05T22:30:34.069Z,81.90
2018-11-05T22:33:01.329Z,81.70
2018-11-05T22:35:28.628Z,81.80
2018-11-05T22:37:55.911Z,82.20
2018-11-05T22:40:23.122Z,82.60
2018-11-05T22:42:50.380Z,83.10
2018-11-05T22:45:17.642Z,83.20
2018-11-05T22:47:45.541Z,83.20
2018-11-05T22:50:12.866Z,83.00
2018-11-05T22:52:40.945Z,83.10
2018-11-05T22:55:08.618Z,83.30
2018-11-05T22:57:35.866Z,83.40
2018-11-05T23:00:04.037Z,83.60
2018-11-05T23:02:31.233Z,83.50
2018-11-05T23:04:58.450Z,83.40
2018-11-05T23:07:25.693Z,83.10
2018-11-05T23:09:53.058Z,83.10
2018-11-05T23:12:20.367Z,83.40
2018-11-05T23:14:47.606Z,83.50
2018-11-05T23:17:14.866Z,84.50
2018-11-05T23:19:42.085Z,83.70
2018-11-05T23:22:09.338Z,83.60
2018-11-05T23:24:36.609Z,83.40
2018-11-05T23:27:03.901Z,83.20
2018-11-05T23:29:31.157Z,83.10
2018-11-05T23:31:58.419Z,83.10
2018-11-05T23:34:25.662Z,82.90
2018-11-05T23:36:52.959Z,82.80
2018-11-05T23:39:20.222Z,82.60
2018-11-05T23:41:47.647Z,82.30
2018-11-05T23:44:15.380Z,83.20
2018-11-05T23:46:42.610Z,82.90
2018-11-05T23:49:09.889Z,82.60
2018-11-05T23:51:37.160Z,82.60
2018-11-05T23:54:04.417Z,83.20
2018-11-05T23:56:31.664Z,82.50
2018-11-05T23:58:58.913Z,82.40
